sensor_id;sensor_type;location;lat;lon;timestamp;pressure;altitude;pressure_sealevel;temperature;humidity
10992;BME280;5549;47.028;15.514;2023-02-28T00:01:44;97390.97;;;2.63;45.60
10992;BME280;5549;47.028;15.514;2023-02-28T00:04:13;97396.25;;;2.60;46.31
10992;BME280;5549;47.028;15.514;2023-02-28T00:06:41;97390.19;;;2.61;46.20
10992;BME280;5549;47.028;15.514;2023-02-28T00:09:09;97391.06;;;2.60;46.32
10992;BME280;5549;47.028;15.514;2023-02-28T00:11:36;97389.38;;;2.59;45.97
10992;BME280;5549;47.028;15.514;2023-02-28T00:14:04;97391.06;;;2.60;46.34
10992;BME280;5549;47.028;15.514;2023-02-28T00:16:32;97391.06;;;2.60;46.20
10992;BME280;5549;47.028;15.514;2023-02-28T00:19:00;97388.44;;;2.62;46.84
10992;BME280;5549;47.028;15.514;2023-02-28T00:21:31;97393.63;;;2.62;46.59
10992;BME280;5549;47.028;15.514;2023-02-28T00:23:58;97388.44;;;2.62;46.83
10992;BME280;5549;47.028;15.514;2023-02-28T00:26:26;97394.34;;;2.65;47.32
10992;BME280;5549;47.028;15.514;2023-02-28T00:28:54;97399.53;;;2.65;46.92
10992;BME280;5549;47.028;15.514;2023-02-28T00:31:22;97397.78;;;2.66;46.64
10992;BME280;5549;47.028;15.514;2023-02-28T00:33:49;97388.25;;;2.66;46.51
10992;BME280;5549;47.028;15.514;2023-02-28T00:36:20;97391.63;;;2.68;46.54
10992;BME280;5549;47.028;15.514;2023-02-28T00:38:52;97396.94;;;2.65;46.73
10992;BME280;5549;47.028;15.514;2023-02-28T00:41:20;97394.34;;;2.65;47.30
10992;BME280;5549;47.028;15.514;2023-02-28T00:43:47;97396.94;;;2.65;46.74
10992;BME280;5549;47.028;15.514;2023-02-28T00:46:15;97397.72;;;2.67;46.48
10992;BME280;5549;47.028;15.514;2023-02-28T00:48:42;97396.88;;;2.67;46.87
10992;BME280;5549;47.028;15.514;2023-02-28T00:51:12;97397.72;;;2.67;46.76
10992;BME280;5549;47.028;15.514;2023-02-28T00:53:40;97399.53;;;2.65;46.94
10992;BME280;5549;47.028;15.514;2023-02-28T00:56:09;97387.53;;;2.63;47.06
10992;BME280;5549;47.028;15.514;2023-02-28T00:58:37;97393.72;;;2.58;47.71
10992;BME280;5549;47.028;15.514;2023-02-28T01:01:04;97397.16;;;2.59;47.73
10992;BME280;5549;47.028;15.514;2023-02-28T01:03:32;97394.56;;;2.59;47.76
10992;BME280;5549;47.028;15.514;2023-02-28T01:06:00;97389.50;;;2.56;47.80
10992;BME280;5549;47.028;15.514;2023-02-28T01:08:27;97393.00;;;2.55;47.05
10992;BME280;5549;47.028;15.514;2023-02-28T01:10:57;97396.75;;;2.48;47.05
10992;BME280;5549;47.028;15.514;2023-02-28T01:13:29;97393.25;;;2.49;47.52
10992;BME280;5549;47.028;15.514;2023-02-28T01:15:59;97403.50;;;2.52;47.23
10992;BME280;5549;47.028;15.514;2023-02-28T01:18:26;97400.91;;;2.52;46.95
10992;BME280;5549;47.028;15.514;2023-02-28T01:21:04;97393.06;;;2.53;46.54
10992;BME280;5549;47.028;15.514;2023-02-28T01:23:31;97395.66;;;2.53;47.11
10992;BME280;5549;47.028;15.514;2023-02-28T01:26:04;97399.34;;;2.48;47.03
10992;BME280;5549;47.028;15.514;2023-02-28T01:28:34;97398.53;;;2.46;47.14
10992;BME280;5549;47.028;15.514;2023-02-28T01:31:01;97400.59;;;2.38;47.67
10992;BME280;5549;47.028;15.514;2023-02-28T01:33:29;97397.31;;;2.33;48.34
10992;BME280;5549;47.028;15.514;2023-02-28T01:35:59;97399.97;;;2.31;48.10
10992;BME280;5549;47.028;15.514;2023-02-28T01:38:27;97401.16;;;2.22;48.32
10992;BME280;5549;47.028;15.514;2023-02-28T01:40:55;97405.13;;;2.09;48.68
10992;BME280;5549;47.028;15.514;2023-02-28T01:43:25;97403.50;;;2.07;48.77
10992;BME280;5549;47.028;15.514;2023-02-28T01:45:56;97398.13;;;2.11;48.45
10992;BME280;5549;47.028;15.514;2023-02-28T01:48:29;97389.56;;;2.09;48.67
10992;BME280;5549;47.028;15.514;2023-02-28T01:51:00;97405.00;;;1.89;49.08
10992;BME280;5549;47.028;15.514;2023-02-28T01:53:34;97404.00;;;1.93;49.05
10992;BME280;5549;47.028;15.514;2023-02-28T01:56:06;97397.78;;;1.97;49.79
10992;BME280;5549;47.028;15.514;2023-02-28T01:58:37;97394.97;;;2.03;49.11
10992;BME280;5549;47.028;15.514;2023-02-28T02:01:08;97395.88;;;2.02;49.13
10992;BME280;5549;47.028;15.514;2023-02-28T02:03:47;97397.47;;;2.06;48.28
10992;BME280;5549;47.028;15.514;2023-02-28T02:06:22;97391.38;;;2.07;48.47
10992;BME280;5549;47.028;15.514;2023-02-28T02:08:49;97392.94;;;2.11;48.59
10992;BME280;5549;47.028;15.514;2023-02-28T02:11:19;97395.59;;;2.10;48.68
10992;BME280;5549;47.028;15.514;2023-02-28T02:14:35;97401.75;;;2.07;48.63
10992;BME280;5549;47.028;15.514;2023-02-28T02:17:21;97389.47;;;2.12;49.00
10992;BME280;5549;47.028;15.514;2023-02-28T02:20:46;97394.28;;;2.21;48.64
10992;BME280;5549;47.028;15.514;2023-02-28T02:27:14;97388.78;;;2.31;48.22
10992;BME280;5549;47.028;15.514;2023-02-28T02:30:25;97386.97;;;2.33;47.69
10992;BME280;5549;47.028;15.514;2023-02-28T02:33:40;97392.03;;;2.36;47.81
10992;BME280;5549;47.028;15.514;2023-02-28T02:36:24;97388.41;;;2.40;48.22
10992;BME280;5549;47.028;15.514;2023-02-28T02:39:04;97392.56;;;2.44;48.04
10992;BME280;5549;47.028;15.514;2023-02-28T02:41:38;97388.25;;;2.44;48.18
10992;BME280;5549;47.028;15.514;2023-02-28T02:44:15;97386.06;;;2.34;48.04
10992;BME280;5549;47.028;15.514;2023-02-28T02:46:48;97390.22;;;2.38;48.28
10992;BME280;5549;47.028;15.514;2023-02-28T02:49:21;97390.94;;;2.41;48.60
10992;BME280;5549;47.028;15.514;2023-02-28T02:51:52;97388.25;;;2.44;48.77
10992;BME280;5549;47.028;15.514;2023-02-28T02:54:27;97394.31;;;2.43;48.60
10992;BME280;5549;47.028;15.514;2023-02-28T02:56:59;97393.25;;;2.49;48.05
10992;BME280;5549;47.028;15.514;2023-02-28T02:59:30;97397.59;;;2.48;47.79
10992;BME280;5549;47.028;15.514;2023-02-28T03:02:04;97396.75;;;2.48;47.09
10992;BME280;5549;47.028;15.514;2023-02-28T03:04:39;97398.44;;;2.49;47.29
10992;BME280;5549;47.028;15.514;2023-02-28T03:07:09;97390.78;;;2.46;47.14
10992;BME280;5549;47.028;15.514;2023-02-28T03:09:36;97396.81;;;2.46;47.50
10992;BME280;5549;47.028;15.514;2023-02-28T03:12:11;97397.59;;;2.48;47.90
10992;BME280;5549;47.028;15.514;2023-02-28T03:14:51;97394.44;;;2.40;47.18
10992;BME280;5549;47.028;15.514;2023-02-28T03:17:34;97395.59;;;2.33;48.22
10992;BME280;5549;47.028;15.514;2023-02-28T03:20:19;97399.00;;;2.34;48.79
10992;BME280;5549;47.028;15.514;2023-02-28T03:23:03;97398.00;;;2.38;49.17
10992;BME280;5549;47.028;15.514;2023-02-28T03:25:43;97390.09;;;2.41;48.69
10992;BME280;5549;47.028;15.514;2023-02-28T03:28:18;97396.97;;;2.42;47.82
10992;BME280;5549;47.028;15.514;2023-02-28T03:30:53;97395.41;;;2.38;48.28
10992;BME280;5549;47.028;15.514;2023-02-28T03:33:30;97395.34;;;2.39;48.65
10992;BME280;5549;47.028;15.514;2023-02-28T03:36:11;97400.47;;;2.41;48.23
10992;BME280;5549;47.028;15.514;2023-02-28T03:38:47;97389.16;;;2.43;47.97
10992;BME280;5549;47.028;15.514;2023-02-28T03:41:21;97393.59;;;2.40;48.10
10992;BME280;5549;47.028;15.514;2023-02-28T03:43:58;97399.69;;;2.39;47.51
10992;BME280;5549;47.028;15.514;2023-02-28T03:46:36;97399.13;;;2.31;47.81
10992;BME280;5549;47.028;15.514;2023-02-28T03:49:13;97399.00;;;2.34;47.54
10992;BME280;5549;47.028;15.514;2023-02-28T03:51:46;97406.13;;;2.29;48.10
10992;BME280;5549;47.028;15.514;2023-02-28T03:54:21;97407.94;;;2.27;48.09
10992;BME280;5549;47.028;15.514;2023-02-28T03:56:55;97407.94;;;2.27;48.52
10992;BME280;5549;47.028;15.514;2023-02-28T03:59:28;97408.94;;;2.22;49.16
10992;BME280;5549;47.028;15.514;2023-02-28T04:01:58;97406.47;;;2.19;49.26
10992;BME280;5549;47.028;15.514;2023-02-28T04:04:26;97408.16;;;2.20;49.02
10992;BME280;5549;47.028;15.514;2023-02-28T04:07:03;97410.19;;;2.12;48.87
10992;BME280;5549;47.028;15.514;2023-02-28T04:09:35;97406.03;;;2.08;49.36
10992;BME280;5549;47.028;15.514;2023-02-28T04:12:03;97414.41;;;2.15;48.56
10992;BME280;5549;47.028;15.514;2023-02-28T04:14:30;97413.97;;;2.04;48.94
10992;BME280;5549;47.028;15.514;2023-02-28T04:16:58;97415.94;;;1.97;49.66
10992;BME280;5549;47.028;15.514;2023-02-28T04:19:25;97419.09;;;2.05;49.65
10992;BME280;5549;47.028;15.514;2023-02-28T04:21:55;97420.66;;;2.09;49.22
10992;BME280;5549;47.028;15.514;2023-02-28T04:24:25;97427.34;;;1.91;49.86
10992;BME280;5549;47.028;15.514;2023-02-28T04:26:56;97424.50;;;1.99;49.75
10992;BME280;5549;47.028;15.514;2023-02-28T04:29:28;97435.13;;;1.67;51.25
10992;BME280;5549;47.028;15.514;2023-02-28T04:32:00;97435.44;;;1.82;51.08
10992;BME280;5549;47.028;15.514;2023-02-28T04:34:31;97435.81;;;1.72;51.02
10992;BME280;5549;47.028;15.514;2023-02-28T04:36:59;97428.63;;;1.80;50.92
10992;BME280;5549;47.028;15.514;2023-02-28T04:39:27;97435.13;;;1.67;50.94
10992;BME280;5549;47.028;15.514;2023-02-28T04:41:56;97432.53;;;1.67;51.91
10992;BME280;5549;47.028;15.514;2023-02-28T04:44:24;97438.38;;;1.72;51.88
10992;BME280;5549;47.028;15.514;2023-02-28T04:46:51;97432.03;;;1.82;51.13
10992;BME280;5549;47.028;15.514;2023-02-28T04:49:19;97441.38;;;1.86;51.18
10992;BME280;5549;47.028;15.514;2023-02-28T04:51:48;97444.94;;;1.57;51.81
10992;BME280;5549;47.028;15.514;2023-02-28T04:54:16;97437.75;;;1.65;51.90
10992;BME280;5549;47.028;15.514;2023-02-28T04:56:44;97438.13;;;1.54;52.18
10992;BME280;5549;47.028;15.514;2023-02-28T04:59:16;97439.22;;;1.74;51.96
10992;BME280;5549;47.028;15.514;2023-02-28T05:01:48;97432.88;;;1.82;51.64
10992;BME280;5549;47.028;15.514;2023-02-28T05:04:18;97432.59;;;1.90;51.80
10992;BME280;5549;47.028;15.514;2023-02-28T05:06:45;97431.53;;;1.96;51.20
10992;BME280;5549;47.028;15.514;2023-02-28T05:09:13;97433.91;;;2.02;51.17
10992;BME280;5549;47.028;15.514;2023-02-28T05:11:43;97426.41;;;1.94;51.12
10992;BME280;5549;47.028;15.514;2023-02-28T05:14:14;97427.88;;;2.01;51.24
10992;BME280;5549;47.028;15.514;2023-02-28T05:16:42;97427.88;;;2.01;50.96
10992;BME280;5549;47.028;15.514;2023-02-28T05:19:11;97429.78;;;1.96;51.17
10992;BME280;5549;47.028;15.514;2023-02-28T05:21:48;97431.69;;;1.91;51.23
10992;BME280;5549;47.028;15.514;2023-02-28T05:24:19;97430.13;;;1.87;51.31
10992;BME280;5549;47.028;15.514;2023-02-28T05:26:50;97424.72;;;1.93;51.81
10992;BME280;5549;47.028;15.514;2023-02-28T05:29:20;97424.81;;;1.90;51.61
10992;BME280;5549;47.028;15.514;2023-02-28T05:31:48;97430.00;;;1.90;51.52
10992;BME280;5549;47.028;15.514;2023-02-28T05:34:15;97435.06;;;1.93;51.48
10992;BME280;5549;47.028;15.514;2023-02-28T05:36:43;97438.97;;;1.55;52.75
10992;BME280;5549;47.028;15.514;2023-02-28T05:39:10;97447.09;;;1.69;52.76
10992;BME280;5549;47.028;15.514;2023-02-28T05:41:41;97447.31;;;1.63;52.91
10992;BME280;5549;47.028;15.514;2023-02-28T05:44:10;97451.78;;;1.33;53.94
10992;BME280;5549;47.028;15.514;2023-02-28T05:46:40;97454.88;;;1.44;53.13
10992;BME280;5549;47.028;15.514;2023-02-28T05:49:09;97461.06;;;1.65;53.35
10992;BME280;5549;47.028;15.514;2023-02-28T05:51:37;97451.88;;;1.56;53.05
10992;BME280;5549;47.028;15.514;2023-02-28T05:54:06;97453.25;;;1.67;53.29
10992;BME280;5549;47.028;15.514;2023-02-28T05:56:34;97462.22;;;1.56;52.97
10992;BME280;5549;47.028;15.514;2023-02-28T05:59:01;97460.16;;;1.15;55.13
10992;BME280;5549;47.028;15.514;2023-02-28T06:01:34;97462.63;;;0.91;55.50
10992;BME280;5549;47.028;15.514;2023-02-28T06:04:09;97471.53;;;1.09;55.65
10992;BME280;5549;47.028;15.514;2023-02-28T06:06:37;97470.41;;;1.18;55.01
10992;BME280;5549;47.028;15.514;2023-02-28T06:09:05;97469.00;;;1.34;54.89
10992;BME280;5549;47.028;15.514;2023-02-28T06:11:33;97464.56;;;1.38;54.79
10992;BME280;5549;47.028;15.514;2023-02-28T06:14:04;97474.56;;;1.48;54.24
10992;BME280;5549;47.028;15.514;2023-02-28T06:16:33;97479.84;;;1.45;54.28
10992;BME280;5549;47.028;15.514;2023-02-28T06:19:03;97478.59;;;1.57;53.64
10992;BME280;5549;47.028;15.514;2023-02-28T06:21:32;97483.44;;;1.41;54.81
10992;BME280;5549;47.028;15.514;2023-02-28T06:24:00;97488.41;;;1.21;55.21
10992;BME280;5549;47.028;15.514;2023-02-28T06:26:28;97488.59;;;1.15;55.26
10992;BME280;5549;47.028;15.514;2023-02-28T06:28:55;97493.84;;;1.13;54.86
10992;BME280;5549;47.028;15.514;2023-02-28T06:31:23;97487.22;;;1.31;54.90
10992;BME280;5549;47.028;15.514;2023-02-28T06:33:52;97495.38;;;1.45;54.62
10992;BME280;5549;47.028;15.514;2023-02-28T06:36:19;97500.25;;;1.54;54.13
10992;BME280;5549;47.028;15.514;2023-02-28T06:38:48;97503.16;;;1.45;54.12
10992;BME280;5549;47.028;15.514;2023-02-28T06:41:22;97505.53;;;1.51;53.96
10992;BME280;5549;47.028;15.514;2023-02-28T06:43:50;97510.81;;;1.48;53.69
10992;BME280;5549;47.028;15.514;2023-02-28T06:46:19;97509.97;;;1.48;54.43
10992;BME280;5549;47.028;15.514;2023-02-28T06:48:46;97511.78;;;1.18;54.97
10992;BME280;5549;47.028;15.514;2023-02-28T06:51:17;97511.03;;;1.14;56.10
10992;BME280;5549;47.028;15.514;2023-02-28T06:53:47;97517.88;;;1.43;54.86
10992;BME280;5549;47.028;15.514;2023-02-28T06:56:17;97518.63;;;1.47;54.60
10992;BME280;5549;47.028;15.514;2023-02-28T06:58:46;97520.97;;;1.54;54.48
10992;BME280;5549;47.028;15.514;2023-02-28T07:01:15;97525.25;;;2.07;67.56
10992;BME280;5549;47.028;15.514;2023-02-28T07:03:42;97524.97;;;2.63;72.94
10992;BME280;5549;47.028;15.514;2023-02-28T07:06:12;97515.84;;;3.19;74.32
10992;BME280;5549;47.028;15.514;2023-02-28T07:08:40;97512.91;;;3.71;71.91
10992;BME280;5549;47.028;15.514;2023-02-28T07:11:09;97509.16;;;4.18;67.33
10992;BME280;5549;47.028;15.514;2023-02-28T07:13:39;97499.66;;;4.57;62.41
10992;BME280;5549;47.028;15.514;2023-02-28T07:16:10;97501.06;;;4.82;57.08
10992;BME280;5549;47.028;15.514;2023-02-28T07:18:38;97503.06;;;5.13;57.84
10992;BME280;5549;47.028;15.514;2023-02-28T07:21:09;97505.09;;;5.44;56.40
10992;BME280;5549;47.028;15.514;2023-02-28T07:23:37;97503.41;;;5.78;56.88
10992;BME280;5549;47.028;15.514;2023-02-28T07:26:13;97504.53;;;5.91;51.66
10992;BME280;5549;47.028;15.514;2023-02-28T07:28:42;97504.25;;;5.78;47.19
10992;BME280;5549;47.028;15.514;2023-02-28T07:31:12;97512.47;;;5.71;50.31
10992;BME280;5549;47.028;15.514;2023-02-28T07:33:41;97513.28;;;4.80;47.76
10992;BME280;5549;47.028;15.514;2023-02-28T07:36:11;97514.66;;;4.31;47.87
10992;BME280;5549;47.028;15.514;2023-02-28T07:38:42;97518.00;;;3.94;48.24
10992;BME280;5549;47.028;15.514;2023-02-28T07:41:11;97523.28;;;3.50;49.21
10992;BME280;5549;47.028;15.514;2023-02-28T07:43:41;97529.72;;;3.40;49.75
10992;BME280;5549;47.028;15.514;2023-02-28T07:46:12;97531.88;;;2.85;51.56
10992;BME280;5549;47.028;15.514;2023-02-28T07:48:41;97534.53;;;2.37;52.95
10992;BME280;5549;47.028;15.514;2023-02-28T07:51:09;97538.00;;;2.13;53.73
10992;BME280;5549;47.028;15.514;2023-02-28T07:53:36;97549.44;;;1.81;54.46
10992;BME280;5549;47.028;15.514;2023-02-28T07:56:06;97546.75;;;1.57;56.00
10992;BME280;5549;47.028;15.514;2023-02-28T07:58:38;97545.53;;;1.68;55.98
10992;BME280;5549;47.028;15.514;2023-02-28T08:01:08;97543.44;;;1.26;57.53
10992;BME280;5549;47.028;15.514;2023-02-28T08:03:39;97545.50;;;1.69;55.99
10992;BME280;5549;47.028;15.514;2023-02-28T08:06:18;97545.31;;;1.75;56.43
10992;BME280;5549;47.028;15.514;2023-02-28T08:08:47;97549.66;;;1.75;55.88
10992;BME280;5549;47.028;15.514;2023-02-28T08:11:17;97556.22;;;1.58;57.38
10992;BME280;5549;47.028;15.514;2023-02-28T08:13:47;97548.13;;;1.68;57.57
10992;BME280;5549;47.028;15.514;2023-02-28T08:16:14;97550.56;;;1.72;56.09
10992;BME280;5549;47.028;15.514;2023-02-28T08:18:47;97546.28;;;1.98;55.92
10992;BME280;5549;47.028;15.514;2023-02-28T08:21:15;97553.69;;;2.08;55.43
10992;BME280;5549;47.028;15.514;2023-02-28T08:23:47;97551.25;;;2.29;54.71
10992;BME280;5549;47.028;15.514;2023-02-28T08:26:14;97551.94;;;2.34;54.79
10992;BME280;5549;47.028;15.514;2023-02-28T08:28:42;97555.91;;;2.44;54.63
10992;BME280;5549;47.028;15.514;2023-02-28T08:31:14;97546.25;;;2.47;54.04
10992;BME280;5549;47.028;15.514;2023-02-28T08:33:43;97553.53;;;2.61;54.02
10992;BME280;5549;47.028;15.514;2023-02-28T08:36:12;97556.56;;;2.49;53.58
10992;BME280;5549;47.028;15.514;2023-02-28T08:38:42;97560.06;;;2.48;53.88
10992;BME280;5549;47.028;15.514;2023-02-28T08:41:12;97561.84;;;2.22;54.71
10992;BME280;5549;47.028;15.514;2023-02-28T08:43:40;97559.72;;;2.34;54.32
10992;BME280;5549;47.028;15.514;2023-02-28T08:46:13;97551.50;;;2.46;53.80
10992;BME280;5549;47.028;15.514;2023-02-28T08:48:43;97554.66;;;2.54;54.00
10992;BME280;5549;47.028;15.514;2023-02-28T08:51:13;97559.84;;;2.54;53.75
10992;BME280;5549;47.028;15.514;2023-02-28T08:53:42;97553.66;;;2.58;54.00
10992;BME280;5549;47.028;15.514;2023-02-28T08:56:13;97562.72;;;2.46;54.51
10992;BME280;5549;47.028;15.514;2023-02-28T08:58:43;97556.28;;;2.56;53.63
10992;BME280;5549;47.028;15.514;2023-02-28T09:01:15;97564.25;;;2.52;54.12
10992;BME280;5549;47.028;15.514;2023-02-28T09:03:45;97565.50;;;2.65;54.35
10992;BME280;5549;47.028;15.514;2023-02-28T09:06:24;97563.34;;;2.76;53.79
10992;BME280;5549;47.028;15.514;2023-02-28T09:08:52;97563.13;;;2.82;53.42
10992;BME280;5549;47.028;15.514;2023-02-28T09:11:20;97560.78;;;2.98;53.14
10992;BME280;5549;47.028;15.514;2023-02-28T09:13:47;97558.09;;;3.01;53.34
10992;BME280;5549;47.028;15.514;2023-02-28T09:16:17;97554.69;;;2.99;53.23
10992;BME280;5549;47.028;15.514;2023-02-28T09:18:47;97555.19;;;3.09;53.08
10992;BME280;5549;47.028;15.514;2023-02-28T09:21:17;97568.75;;;2.94;52.71
10992;BME280;5549;47.028;15.514;2023-02-28T09:23:50;97561.94;;;2.68;53.06
10992;BME280;5549;47.028;15.514;2023-02-28T09:26:20;97570.56;;;2.92;52.80
10992;BME280;5549;47.028;15.514;2023-02-28T09:28:51;97568.69;;;2.95;52.86
10992;BME280;5549;47.028;15.514;2023-02-28T09:31:22;97573.03;;;2.95;52.98
10992;BME280;5549;47.028;15.514;2023-02-28T09:33:53;97568.47;;;3.01;52.72
10992;BME280;5549;47.028;15.514;2023-02-28T09:36:30;97567.69;;;3.21;52.37
10992;BME280;5549;47.028;15.514;2023-02-28T09:39:01;97569.56;;;3.39;52.14
10992;BME280;5549;47.028;15.514;2023-02-28T09:41:36;97567.63;;;3.44;51.88
10992;BME280;5549;47.028;15.514;2023-02-28T09:44:07;97567.88;;;3.38;52.03
10992;BME280;5549;47.028;15.514;2023-02-28T09:46:43;97567.88;;;3.38;51.99
10992;BME280;5549;47.028;15.514;2023-02-28T09:49:14;97569.22;;;3.27;52.25
10992;BME280;5549;47.028;15.514;2023-02-28T09:51:51;97570.00;;;2.83;53.69
10992;BME280;5549;47.028;15.514;2023-02-28T09:54:24;97572.25;;;2.69;54.04
10992;BME280;5549;47.028;15.514;2023-02-28T09:56:56;97564.06;;;3.03;52.71
10992;BME280;5549;47.028;15.514;2023-02-28T09:59:48;97578.59;;;3.07;52.73
10992;BME280;5549;47.028;15.514;2023-02-28T10:02:54;97574.97;;;2.89;53.68
10992;BME280;5549;47.028;15.514;2023-02-28T10:05:28;97564.19;;;3.22;52.80
10992;BME280;5549;47.028;15.514;2023-02-28T10:08:07;97561.00;;;3.37;52.88
10992;BME280;5549;47.028;15.514;2023-02-28T10:10:41;97560.63;;;3.46;52.96
10992;BME280;5549;47.028;15.514;2023-02-28T10:13:25;97556.41;;;3.66;52.58
10992;BME280;5549;47.028;15.514;2023-02-28T10:15:58;97555.66;;;3.84;52.02
10992;BME280;5549;47.028;15.514;2023-02-28T10:18:38;97555.53;;;3.87;51.60
10992;BME280;5549;47.028;15.514;2023-02-28T10:21:19;97551.56;;;3.78;51.72
10992;BME280;5549;47.028;15.514;2023-02-28T10:23:49;97551.09;;;3.69;51.41
10992;BME280;5549;47.028;15.514;2023-02-28T10:26:24;97549.03;;;3.77;51.31
10992;BME280;5549;47.028;15.514;2023-02-28T10:28:53;97550.53;;;3.82;51.65
10992;BME280;5549;47.028;15.514;2023-02-28T10:31:21;97553.28;;;4.00;51.35
10992;BME280;5549;47.028;15.514;2023-02-28T10:33:52;97549.56;;;4.05;50.95
10992;BME280;5549;47.028;15.514;2023-02-28T10:36:21;97557.25;;;4.08;51.16
10992;BME280;5549;47.028;15.514;2023-02-28T10:38:49;97555.81;;;4.22;50.47
10992;BME280;5549;47.028;15.514;2023-02-28T10:41:28;97546.56;;;4.35;51.15
10992;BME280;5549;47.028;15.514;2023-02-28T10:44:17;97539.28;;;4.43;50.96
10992;BME280;5549;47.028;15.514;2023-02-28T10:46:47;97543.72;;;3.36;53.21
10992;BME280;5549;47.028;15.514;2023-02-28T10:49:22;97544.22;;;3.68;51.81
10992;BME280;5549;47.028;15.514;2023-02-28T10:51:54;97541.91;;;4.02;51.48
10992;BME280;5549;47.028;15.514;2023-02-28T10:54:27;97542.56;;;4.07;51.86
10992;BME280;5549;47.028;15.514;2023-02-28T10:57:08;97542.75;;;3.82;50.65
10992;BME280;5549;47.028;15.514;2023-02-28T10:59:36;97539.56;;;3.76;50.46
10992;BME280;5549;47.028;15.514;2023-02-28T11:02:33;97530.34;;;4.09;50.37
10992;BME280;5549;47.028;15.514;2023-02-28T11:05:02;97534.50;;;3.93;51.08
10992;BME280;5549;47.028;15.514;2023-02-28T11:07:52;97530.72;;;4.00;51.71
10992;BME280;5549;47.028;15.514;2023-02-28T11:10:28;97526.06;;;3.88;51.10
10992;BME280;5549;47.028;15.514;2023-02-28T11:12:58;97522.53;;;4.09;51.37
10992;BME280;5549;47.028;15.514;2023-02-28T11:15:30;97513.81;;;4.31;50.81
10992;BME280;5549;47.028;15.514;2023-02-28T11:18:01;97507.03;;;4.47;50.35
10992;BME280;5549;47.028;15.514;2023-02-28T11:20:33;97504.28;;;4.50;49.97
10992;BME280;5549;47.028;15.514;2023-02-28T11:23:04;97503.88;;;4.59;49.39
10992;BME280;5549;47.028;15.514;2023-02-28T11:25:36;97505.00;;;4.72;50.04
10992;BME280;5549;47.028;15.514;2023-02-28T11:28:06;97499.78;;;4.91;49.79
10992;BME280;5549;47.028;15.514;2023-02-28T11:31:04;97500.34;;;4.98;49.99
10992;BME280;5549;47.028;15.514;2023-02-28T11:33:37;97496.53;;;5.05;50.01
10992;BME280;5549;47.028;15.514;2023-02-28T11:36:14;97489.50;;;5.26;49.05
10992;BME280;5549;47.028;15.514;2023-02-28T11:38:44;97495.06;;;5.54;48.32
10992;BME280;5549;47.028;15.514;2023-02-28T11:41:50;97489.84;;;5.18;49.85
10992;BME280;5549;47.028;15.514;2023-02-28T11:44:40;97488.81;;;5.03;50.11
10992;BME280;5549;47.028;15.514;2023-02-28T11:47:19;97488.38;;;5.31;49.10
10992;BME280;5549;47.028;15.514;2023-02-28T11:50:09;97498.28;;;5.59;48.99
10992;BME280;5549;47.028;15.514;2023-02-28T11:52:48;97489.16;;;5.51;48.31
10992;BME280;5549;47.028;15.514;2023-02-28T11:55:20;97468.94;;;5.73;48.30
10992;BME280;5549;47.028;15.514;2023-02-28T11:58:10;97482.25;;;5.50;48.85
10992;BME280;5549;47.028;15.514;2023-02-28T12:04:01;97470.66;;;5.21;49.30
10992;BME280;5549;47.028;15.514;2023-02-28T12:06:37;97472.72;;;5.31;49.05
10992;BME280;5549;47.028;15.514;2023-02-28T12:09:30;97468.59;;;5.27;49.92
10992;BME280;5549;47.028;15.514;2023-02-28T12:12:15;97464.72;;;5.17;50.25
10992;BME280;5549;47.028;15.514;2023-02-28T12:15:01;97463.03;;;5.16;49.78
10992;BME280;5549;47.028;15.514;2023-02-28T12:17:51;97458.50;;;5.20;49.25
10992;BME280;5549;47.028;15.514;2023-02-28T12:20:33;97461.41;;;5.32;49.28
10992;BME280;5549;47.028;15.514;2023-02-28T12:23:42;97459.88;;;5.28;49.61
10992;BME280;5549;47.028;15.514;2023-02-28T12:26:17;97456.75;;;5.56;50.14
10992;BME280;5549;47.028;15.514;2023-02-28T12:28:50;97461.72;;;5.43;49.06
10992;BME280;5549;47.028;15.514;2023-02-28T12:31:21;97460.84;;;5.26;49.27
10992;BME280;5549;47.028;15.514;2023-02-28T12:33:53;97455.50;;;5.29;49.32
10992;BME280;5549;47.028;15.514;2023-02-28T12:36:23;97449.19;;;4.97;49.92
10992;BME280;5549;47.028;15.514;2023-02-28T12:38:56;97454.59;;;5.30;49.49
10992;BME280;5549;47.028;15.514;2023-02-28T12:41:34;97448.69;;;5.26;49.40
10992;BME280;5549;47.028;15.514;2023-02-28T12:44:08;97444.47;;;5.05;48.78
10992;BME280;5549;47.028;15.514;2023-02-28T12:46:42;97446.09;;;5.43;49.37
10992;BME280;5549;47.028;15.514;2023-02-28T12:49:17;97443.47;;;5.61;48.78
10992;BME280;5549;47.028;15.514;2023-02-28T12:51:47;97441.88;;;5.41;49.71
10992;BME280;5549;47.028;15.514;2023-02-28T12:54:23;97436.81;;;5.55;49.31
10992;BME280;5549;47.028;15.514;2023-02-28T12:57:04;97436.34;;;5.47;49.68
10992;BME280;5549;47.028;15.514;2023-02-28T12:59:39;97435.13;;;5.71;48.54
10992;BME280;5549;47.028;15.514;2023-02-28T13:06:22;97425.91;;;5.82;48.82
10992;BME280;5549;47.028;15.514;2023-02-28T13:09:09;97426.09;;;5.61;49.12
10992;BME280;5549;47.028;15.514;2023-02-28T13:11:43;97431.69;;;5.71;48.96
10992;BME280;5549;47.028;15.514;2023-02-28T13:14:24;97421.56;;;5.99;49.62
10992;BME280;5549;47.028;15.514;2023-02-28T13:16:59;97422.88;;;5.91;48.69
10992;BME280;5549;47.028;15.514;2023-02-28T13:19:33;97418.78;;;6.02;48.29
10992;BME280;5549;47.028;15.514;2023-02-28T13:22:02;97420.34;;;5.72;47.89
10992;BME280;5549;47.028;15.514;2023-02-28T13:24:47;97417.06;;;6.19;48.27
10992;BME280;5549;47.028;15.514;2023-02-28T13:27:35;97406.19;;;6.10;47.98
10992;BME280;5549;47.028;15.514;2023-02-28T13:33:33;97413.22;;;6.73;46.41
10992;BME280;5549;47.028;15.514;2023-02-28T13:36:26;97406.41;;;6.70;46.02
10992;BME280;5549;47.028;15.514;2023-02-28T13:38:59;97399.75;;;6.49;45.82
10992;BME280;5549;47.028;15.514;2023-02-28T13:41:47;97397.06;;;6.66;45.51
10992;BME280;5549;47.028;15.514;2023-02-28T13:44:18;97388.66;;;6.77;46.00
10992;BME280;5549;47.028;15.514;2023-02-28T13:47:27;97396.81;;;6.87;44.08
10992;BME280;5549;47.028;15.514;2023-02-28T13:50:21;97389.06;;;7.01;44.14
10992;BME280;5549;47.028;15.514;2023-02-28T13:53:23;97386.63;;;6.66;44.84
10992;BME280;5549;47.028;15.514;2023-02-28T13:56:03;97383.31;;;7.10;45.14
10992;BME280;5549;47.028;15.514;2023-02-28T13:58:46;97382.66;;;6.91;43.60